createdAt,value
2022-09-03T00:02:15.835Z,15.90
2022-09-03T00:05:05.663Z,15.90
2022-09-03T00:07:38.212Z,16.00
2022-09-03T00:10:12.130Z,16.00
2022-09-03T00:12:46.217Z,15.90
2022-09-03T00:15:17.767Z,15.90
2022-09-03T00:17:59.239Z,15.80
2022-09-03T00:20:33.192Z,15.70
2022-09-03T00:23:08.896Z,15.80
2022-09-03T00:25:50.926Z,15.90
2022-09-03T00:28:24.502Z,15.90
2022-09-03T00:31:00.040Z,15.90
2022-09-03T00:33:31.240Z,15.80
2022-09-03T00:36:12.513Z,15.70
2022-09-03T00:38:40.385Z,15.70
2022-09-03T00:41:26.144Z,15.60
2022-09-03T00:44:14.886Z,15.60
2022-09-03T00:46:53.236Z,15.60
2022-09-03T00:49:26.213Z,15.50
2022-09-03T00:52:23.179Z,15.50
2022-09-03T00:55:16.983Z,15.60
2022-09-03T00:57:53.406Z,15.60
2022-09-03T01:00:21.289Z,15.70
2022-09-03T01:03:08.475Z,15.60
2022-09-03T01:06:11.505Z,15.60
2022-09-03T01:08:57.855Z,15.50
2022-09-03T01:11:47.684Z,15.50
2022-09-03T01:14:32.932Z,15.50
2022-09-03T01:17:22.809Z,15.50
2022-09-03T01:19:56.079Z,15.40
2022-09-03T01:22:24.823Z,15.50
2022-09-03T01:24:59.103Z,15.40
2022-09-03T01:28:02.223Z,15.40
2022-09-03T01:30:33.437Z,15.40
2022-09-03T01:33:06.282Z,15.20
2022-09-03T01:36:11.585Z,15.20
2022-09-03T01:38:41.559Z,15.20
2022-09-03T01:41:39.777Z,15.30
2022-09-03T01:44:25.313Z,15.20
2022-09-03T01:47:08.972Z,15.10
2022-09-03T01:49:47.559Z,15.20
2022-09-03T01:52:26.114Z,15.20
2022-09-03T01:55:12.010Z,15.10
2022-09-03T01:57:57.058Z,15.10
2022-09-03T02:00:26.371Z,15.10
2022-09-03T02:02:54.103Z,15.20
2022-09-03T02:05:27.979Z,15.10
2022-09-03T02:08:02.180Z,15.10
2022-09-03T02:10:31.988Z,15.10
2022-09-03T02:13:18.668Z,14.90
2022-09-03T02:15:48.770Z,14.90
2022-09-03T02:18:24.428Z,14.90
2022-09-03T02:20:53.734Z,14.90
2022-09-03T02:23:24.653Z,14.80
2022-09-03T02:26:01.456Z,14.80
2022-09-03T02:28:30.637Z,14.80
2022-09-03T02:30:58.104Z,14.90
2022-09-03T02:33:25.717Z,14.80
2022-09-03T02:35:54.034Z,14.80
2022-09-03T02:38:26.042Z,14.70
2022-09-03T02:40:56.809Z,14.80
2022-09-03T02:44:06.223Z,14.80
2022-09-03T02:46:50.832Z,14.80
2022-09-03T02:49:17.776Z,14.70
2022-09-03T02:51:45.319Z,14.70
2022-09-03T02:54:16.742Z,14.60
2022-09-03T02:56:48.530Z,14.70
2022-09-03T02:59:18.084Z,14.70
2022-09-03T03:01:46.554Z,14.70
2022-09-03T03:04:14.400Z,14.70
2022-09-03T03:06:41.430Z,14.80
2022-09-03T03:09:09.053Z,14.80
2022-09-03T03:11:37.157Z,14.70
2022-09-03T03:14:04.456Z,14.70
2022-09-03T03:16:31.619Z,14.70
2022-09-03T03:18:58.977Z,14.80
2022-09-03T03:21:26.121Z,14.80
2022-09-03T03:23:53.882Z,14.80
2022-09-03T03:26:23.004Z,14.80
2022-09-03T03:28:51.050Z,14.80
2022-09-03T03:31:21.311Z,14.70
2022-09-03T03:33:53.549Z,14.70
2022-09-03T03:36:23.014Z,14.70
2022-09-03T03:38:50.098Z,14.70
2022-09-03T03:41:19.542Z,14.70
2022-09-03T03:43:46.590Z,14.60
2022-09-03T03:46:15.401Z,14.50
2022-09-03T03:48:42.588Z,14.50
2022-09-03T03:51:11.037Z,14.60
2022-09-03T03:53:38.987Z,14.50
2022-09-03T03:56:09.920Z,14.50
2022-09-03T03:58:37.723Z,14.50
2022-09-03T04:01:10.608Z,14.60
2022-09-03T04:03:38.142Z,14.50
2022-09-03T04:06:05.983Z,14.50
2022-09-03T04:08:38.286Z,14.50
2022-09-03T04:11:08.401Z,14.40
2022-09-03T04:13:38.387Z,14.50
2022-09-03T04:16:06.535Z,14.60
2022-09-03T04:18:35.116Z,14.60
2022-09-03T04:21:14.087Z,14.60
2022-09-03T04:23:43.834Z,14.60
2022-09-03T04:26:13.416Z,14.50
2022-09-03T04:28:42.306Z,14.50
2022-09-03T04:31:12.477Z,14.50
2022-09-03T04:33:39.840Z,14.50
2022-09-03T04:36:21.629Z,14.40
2022-09-03T04:38:50.826Z,14.50
2022-09-03T04:41:20.585Z,14.50
2022-09-03T04:43:51.345Z,14.50
2022-09-03T04:46:22.244Z,14.50
2022-09-03T04:48:54.172Z,14.50
2022-09-03T04:51:24.500Z,14.50
2022-09-03T04:54:01.045Z,14.50
2022-09-03T04:56:33.617Z,14.40
2022-09-03T04:59:06.093Z,14.50
2022-09-03T05:01:35.327Z,14.50
2022-09-03T05:04:03.289Z,14.60
2022-09-03T05:06:31.666Z,14.60
2022-09-03T05:09:00.496Z,14.90
2022-09-03T05:11:29.046Z,15.00
2022-09-03T05:13:58.365Z,15.20
2022-09-03T05:16:27.071Z,15.30
2022-09-03T05:18:56.188Z,15.50
2022-09-03T05:21:24.062Z,15.60
2022-09-03T05:23:52.990Z,15.70
2022-09-03T05:26:26.025Z,15.80
2022-09-03T05:28:58.099Z,15.90
2022-09-03T05:31:28.323Z,16.10
2022-09-03T05:34:00.634Z,16.20
2022-09-03T05:36:37.269Z,16.30
2022-09-03T05:39:05.732Z,16.10
2022-09-03T05:41:34.382Z,15.80
2022-09-03T05:44:01.715Z,16.10
2022-09-03T05:46:34.557Z,16.10
2022-09-03T05:49:03.034Z,15.80
2022-09-03T05:51:31.562Z,15.50
2022-09-03T05:53:59.495Z,15.30
2022-09-03T05:56:29.064Z,15.20
2022-09-03T05:59:01.951Z,15.00
2022-09-03T06:01:34.558Z,15.00
2022-09-03T06:04:07.162Z,15.10
2022-09-03T06:06:36.310Z,15.10
2022-09-03T06:09:06.517Z,15.10
2022-09-03T06:11:35.995Z,15.20
2022-09-03T06:14:06.069Z,15.30
2022-09-03T06:16:36.176Z,15.40
2022-09-03T06:19:06.273Z,15.50
2022-09-03T06:21:33.526Z,15.60
2022-09-03T06:24:00.887Z,15.70
2022-09-03T06:26:30.188Z,15.70
2022-09-03T06:28:58.094Z,15.80
2022-09-03T06:31:25.967Z,15.80
2022-09-03T06:33:54.841Z,15.90
2022-09-03T06:36:24.493Z,16.00
2022-09-03T06:38:56.837Z,16.00
2022-09-03T06:41:27.008Z,16.10
2022-09-03T06:43:59.683Z,16.20
2022-09-03T06:46:26.963Z,16.20
2022-09-03T06:48:55.155Z,16.30
2022-09-03T06:51:24.921Z,16.30
2022-09-03T06:53:54.829Z,16.40
2022-09-03T06:56:26.584Z,16.40
2022-09-03T06:59:06.190Z,16.50
2022-09-03T07:01:34.748Z,16.60
2022-09-03T07:04:05.799Z,16.70
2022-09-03T07:06:39.132Z,16.70
2022-09-03T07:09:10.559Z,17.00
2022-09-03T07:11:39.691Z,17.10
2022-09-03T07:14:06.778Z,17.70
2022-09-03T07:16:36.759Z,18.50
2022-09-03T07:19:05.210Z,19.00
2022-09-03T07:21:34.225Z,19.30
2022-09-03T07:24:02.589Z,19.40
2022-09-03T07:26:33.517Z,19.00
2022-09-03T07:29:01.490Z,19.20
2022-09-03T07:31:34.932Z,19.40
2022-09-03T07:34:10.077Z,19.70
2022-09-03T07:36:43.198Z,19.80
2022-09-03T07:39:12.419Z,19.80
2022-09-03T07:41:43.405Z,19.40
2022-09-03T07:44:10.843Z,19.10
2022-09-03T07:46:40.263Z,18.80
2022-09-03T07:49:08.234Z,18.60
2022-09-03T07:51:38.885Z,18.50
2022-09-03T07:54:11.409Z,18.40
2022-09-03T07:56:41.262Z,18.50
2022-09-03T07:59:09.425Z,18.50
2022-09-03T08:01:38.344Z,18.50
2022-09-03T08:04:09.377Z,18.60
2022-09-03T08:06:38.674Z,19.00
2022-09-03T08:09:07.842Z,19.20
2022-09-03T08:11:38.893Z,19.40
2022-09-03T08:14:08.058Z,19.80
2022-09-03T08:16:40.213Z,19.90
2022-09-03T08:19:07.947Z,19.80
2022-09-03T08:21:35.502Z,19.80
2022-09-03T08:24:03.123Z,19.60
2022-09-03T08:26:35.222Z,19.60
2022-09-03T08:29:03.177Z,19.40
2022-09-03T08:31:31.151Z,19.40
2022-09-03T08:33:59.842Z,19.40
2022-09-03T08:36:30.286Z,19.30
2022-09-03T08:38:59.570Z,19.20
2022-09-03T08:41:42.722Z,19.20
2022-09-03T08:44:28.153Z,19.20
2022-09-03T08:47:23.306Z,19.10
2022-09-03T08:50:02.640Z,19.10
2022-09-03T08:52:49.177Z,19.00
2022-09-03T08:55:25.562Z,19.00
2022-09-03T08:58:27.846Z,18.90
2022-09-03T09:01:01.778Z,18.80
2022-09-03T09:03:42.755Z,18.80
2022-09-03T09:06:24.110Z,18.70
2022-09-03T09:09:01.095Z,18.70
2022-09-03T09:11:43.251Z,18.90
2022-09-03T09:14:25.579Z,19.00
2022-09-03T09:17:17.426Z,19.10
2022-09-03T09:19:44.743Z,19.20
2022-09-03T09:22:30.471Z,19.40
2022-09-03T09:25:02.546Z,19.50
2022-09-03T09:27:30.571Z,19.40
2022-09-03T09:30:02.192Z,19.20
2022-09-03T09:32:32.188Z,19.00
2022-09-03T09:35:00.228Z,19.10
2022-09-03T09:37:27.673Z,19.10
2022-09-03T09:40:01.500Z,19.10
2022-09-03T09:42:31.242Z,19.00
2022-09-03T09:45:10.316Z,19.00
2022-09-03T09:47:40.961Z,19.20
2022-09-03T09:50:26.156Z,19.20
2022-09-03T09:53:14.508Z,19.20
2022-09-03T09:55:53.789Z,19.30
2022-09-03T09:58:26.132Z,19.50
2022-09-03T10:01:00.357Z,19.70
2022-09-03T10:03:30.004Z,19.70
2022-09-03T10:06:32.718Z,19.70
2022-09-03T10:09:12.513Z,19.60
2022-09-03T10:11:44.305Z,19.60
2022-09-03T10:14:23.205Z,19.70
2022-09-03T10:17:00.821Z,20.00
2022-09-03T10:20:13.585Z,20.10
2022-09-03T10:22:56.342Z,20.20
2022-09-03T10:25:30.671Z,20.50
2022-09-03T10:28:00.543Z,20.70
2022-09-03T10:40:34.995Z,21.10
2022-09-03T10:43:11.245Z,21.00
2022-09-03T10:46:10.120Z,21.00
2022-09-03T10:48:53.953Z,21.30
2022-09-03T10:51:28.061Z,21.30
2022-09-03T10:54:17.431Z,21.50
2022-09-03T10:56:57.981Z,21.70
2022-09-03T10:59:48.692Z,21.90
2022-09-03T11:02:34.973Z,22.10
2022-09-03T11:05:17.056Z,21.80
2022-09-03T11:07:56.227Z,21.60
2022-09-03T11:10:30.744Z,21.40
2022-09-03T11:13:04.592Z,21.30
2022-09-03T11:15:35.405Z,21.10
2022-09-03T11:18:35.198Z,21.10
2022-09-03T11:21:14.414Z,21.20
2022-09-03T11:23:47.488Z,21.00
2022-09-03T11:26:22.095Z,21.10
2022-09-03T11:29:16.497Z,21.80
2022-09-03T11:32:02.640Z,22.80
2022-09-03T11:34:34.059Z,23.40
2022-09-03T11:37:24.526Z,23.20
2022-09-03T11:40:05.191Z,23.60
2022-09-03T11:42:33.092Z,23.50
2022-09-03T11:45:20.476Z,23.00
2022-09-03T11:47:47.892Z,23.20
2022-09-03T11:50:23.380Z,23.60
2022-09-03T11:52:57.014Z,23.50
2022-09-03T11:55:38.364Z,23.30
2022-09-03T11:58:27.382Z,22.80
2022-09-03T12:05:04.386Z,24.10
2022-09-03T12:07:59.797Z,24.30
2022-09-03T12:10:32.581Z,24.40
2022-09-03T12:13:14.126Z,24.00
2022-09-03T12:15:47.518Z,24.00
2022-09-03T12:18:27.156Z,24.30
2022-09-03T12:20:55.786Z,24.80
2022-09-03T12:23:35.018Z,25.10
2022-09-03T12:26:28.508Z,25.50
2022-09-03T12:28:57.817Z,25.70
2022-09-03T12:31:33.183Z,25.30
2022-09-03T12:34:02.865Z,25.20
2022-09-03T12:36:54.612Z,25.30
2022-09-03T12:42:20.439Z,26.40
2022-09-03T12:44:47.548Z,26.70
2022-09-03T12:47:37.410Z,26.80
2022-09-03T12:50:20.060Z,26.60
2022-09-03T12:53:01.938Z,26.90
2022-09-03T12:55:57.330Z,27.60
2022-09-03T12:58:33.841Z,27.80
2022-09-03T13:01:17.892Z,27.00
2022-09-03T13:04:06.945Z,27.30
2022-09-03T13:06:57.003Z,27.50
2022-09-03T13:09:27.085Z,27.30
2022-09-03T13:11:55.696Z,27.50
2022-09-03T13:14:22.963Z,27.60
2022-09-03T13:17:22.149Z,26.90
2022-09-03T13:20:20.982Z,26.10
2022-09-03T13:23:31.360Z,26.20
2022-09-03T13:26:38.236Z,26.40
2022-09-03T13:29:25.419Z,26.00
2022-09-03T13:32:27.418Z,25.70
2022-09-03T13:35:30.593Z,26.50
2022-09-03T13:38:36.926Z,27.50
2022-09-03T13:41:36.506Z,27.50
2022-09-03T13:44:18.604Z,27.10
2022-09-03T13:47:09.680Z,26.80
2022-09-03T13:50:10.967Z,27.30
2022-09-03T13:52:58.032Z,27.60
2022-09-03T13:55:50.562Z,27.70
2022-09-03T13:58:29.413Z,28.10
2022-09-03T14:01:00.223Z,28.50
2022-09-03T14:03:35.956Z,28.50
2022-09-03T14:06:28.759Z,28.20
2022-09-03T14:09:34.407Z,27.90
2022-09-03T14:12:25.608Z,27.60
2022-09-03T14:15:02.915Z,27.30
2022-09-03T14:18:07.623Z,26.70
2022-09-03T14:20:46.102Z,27.00
2022-09-03T14:23:35.823Z,27.20
2022-09-03T14:26:07.096Z,27.90
2022-09-03T14:28:37.477Z,28.80
2022-09-03T14:31:10.439Z,28.50
2022-09-03T14:34:00.894Z,28.60
2022-09-03T14:36:56.106Z,29.20
2022-09-03T14:39:52.281Z,29.50
2022-09-03T14:42:48.002Z,28.70
2022-09-03T14:45:52.907Z,27.40
2022-09-03T14:48:51.531Z,27.80
2022-09-03T14:51:39.924Z,27.90
2022-09-03T14:54:29.076Z,27.40
2022-09-03T14:57:22.606Z,27.10
2022-09-03T15:00:22.438Z,27.20
2022-09-03T15:03:44.232Z,28.10
2022-09-03T15:06:47.732Z,28.20
2022-09-03T15:09:57.542Z,28.10
2022-09-03T15:12:49.861Z,27.70
2022-09-03T15:15:24.895Z,28.30
2022-09-03T15:18:13.367Z,27.90
2022-09-03T15:20:51.058Z,28.20
2022-09-03T15:23:28.242Z,27.90
2022-09-03T15:26:16.431Z,27.60
2022-09-03T15:29:02.173Z,26.60
2022-09-03T15:31:39.363Z,25.20
2022-09-03T15:34:27.334Z,24.50
2022-09-03T15:37:06.605Z,24.10
2022-09-03T15:39:37.505Z,23.90
2022-09-03T15:42:16.071Z,24.00
2022-09-03T15:44:55.844Z,23.70
2022-09-03T15:47:35.272Z,23.60
2022-09-03T15:50:37.727Z,23.50
2022-09-03T15:53:46.163Z,23.30
2022-09-03T15:56:21.219Z,23.20
2022-09-03T16:01:54.741Z,23.10
2022-09-03T16:04:43.408Z,23.30
2022-09-03T16:07:13.939Z,23.50
2022-09-03T16:10:24.768Z,23.80
2022-09-03T16:15:40.595Z,24.20
2022-09-03T16:18:33.429Z,24.10
2022-09-03T16:21:06.117Z,24.00
2022-09-03T16:23:59.176Z,23.80
2022-09-03T16:26:50.435Z,23.80
2022-09-03T16:29:26.202Z,23.50
2022-09-03T16:32:11.697Z,23.40
2022-09-03T16:35:13.975Z,23.30
2022-09-03T16:37:59.961Z,23.20
2022-09-03T16:40:41.638Z,23.00
2022-09-03T16:43:45.349Z,22.90
2022-09-03T16:46:41.657Z,22.70
2022-09-03T16:49:39.475Z,22.50
2022-09-03T16:52:38.552Z,22.30
2022-09-03T16:55:27.833Z,22.00
2022-09-03T16:58:10.177Z,21.80
2022-09-03T17:01:22.371Z,21.50
2022-09-03T17:04:21.689Z,21.20
2022-09-03T17:06:53.856Z,20.90
2022-09-03T17:09:56.203Z,20.60
2022-09-03T17:12:29.117Z,20.40
2022-09-03T17:15:13.857Z,20.20
2022-09-03T17:17:51.244Z,20.10
2022-09-03T17:20:37.410Z,19.80
2022-09-03T17:23:09.681Z,19.60
2022-09-03T17:25:38.099Z,19.40
2022-09-03T17:28:43.002Z,19.40
2022-09-03T17:31:24.318Z,19.30
2022-09-03T17:34:00.177Z,19.20
2022-09-03T17:36:32.428Z,19.10
2022-09-03T17:38:59.453Z,19.10
2022-09-03T17:41:41.012Z,19.00
2022-09-03T17:44:20.969Z,18.90
2022-09-03T17:47:24.829Z,18.70
2022-09-03T17:50:07.666Z,18.60
2022-09-03T17:52:49.846Z,18.50
2022-09-03T17:55:22.825Z,18.40
2022-09-03T17:58:18.058Z,18.30
2022-09-03T18:00:59.079Z,18.20
2022-09-03T18:03:33.382Z,18.00
2022-09-03T18:06:22.529Z,17.90
2022-09-03T18:09:03.531Z,17.80
2022-09-03T18:11:40.996Z,17.80
2022-09-03T18:14:31.846Z,17.70
2022-09-03T18:17:16.967Z,17.70
2022-09-03T18:20:13.558Z,17.60
2022-09-03T18:23:17.427Z,17.50
2022-09-03T18:26:06.962Z,17.50
2022-09-03T18:29:05.493Z,17.60
2022-09-03T18:31:50.838Z,17.50
2022-09-03T18:34:40.214Z,17.50
2022-09-03T18:37:27.352Z,17.50
2022-09-03T18:40:12.890Z,17.50
2022-09-03T18:43:34.523Z,17.50
2022-09-03T18:50:31.649Z,17.40
2022-09-03T18:53:47.014Z,17.30
2022-09-03T18:56:35.597Z,17.20
2022-09-03T18:59:33.246Z,17.00
2022-09-03T19:02:29.248Z,16.90
2022-09-03T19:05:30.469Z,16.80
2022-09-03T19:08:22.106Z,16.70
2022-09-03T19:11:10.436Z,16.60
2022-09-03T19:13:59.036Z,16.50
2022-09-03T19:17:02.943Z,16.40
2022-09-03T19:19:54.605Z,16.30
2022-09-03T19:22:53.189Z,16.30
2022-09-03T19:25:39.946Z,16.20
2022-09-03T19:28:34.538Z,16.20
2022-09-03T19:31:30.389Z,16.20
2022-09-03T19:34:42.521Z,16.20
2022-09-03T19:37:31.304Z,16.20
2022-09-03T19:40:22.856Z,16.20
2022-09-03T19:43:17.988Z,16.20
2022-09-03T19:46:24.366Z,16.30
2022-09-03T19:49:25.516Z,16.30
2022-09-03T19:52:20.651Z,16.30
2022-09-03T19:55:11.504Z,16.40
2022-09-03T19:57:59.875Z,16.40
2022-09-03T20:00:47.866Z,16.30
2022-09-03T20:03:33.655Z,16.30
2022-09-03T20:06:23.875Z,16.30
2022-09-03T20:09:10.762Z,16.30
2022-09-03T20:11:40.549Z,16.30
2022-09-03T20:14:17.375Z,16.40
2022-09-03T20:17:14.745Z,16.40
2022-09-03T20:20:12.003Z,16.40
2022-09-03T20:22:54.367Z,16.40
2022-09-03T20:25:33.257Z,16.30
2022-09-03T20:28:15.128Z,16.30
2022-09-03T20:31:26.400Z,16.20
2022-09-03T20:34:11.433Z,16.20
2022-09-03T20:36:55.453Z,16.20
2022-09-03T20:39:34.395Z,16.20
2022-09-03T20:42:22.231Z,16.20
2022-09-03T20:45:23.299Z,16.30
2022-09-03T20:48:29.145Z,16.20
2022-09-03T20:51:06.058Z,16.20
2022-09-03T20:54:09.673Z,16.20
2022-09-03T20:56:36.703Z,16.20
2022-09-03T20:59:29.014Z,16.20
2022-09-03T21:02:21.258Z,16.10
2022-09-03T21:05:17.245Z,16.20
2022-09-03T21:07:53.178Z,16.20
2022-09-03T21:10:43.479Z,16.20
2022-09-03T21:14:10.153Z,16.20
2022-09-03T21:17:18.747Z,16.10
2022-09-03T21:20:01.436Z,16.10
2022-09-03T21:22:33.943Z,16.20
2022-09-03T21:25:09.739Z,16.20
2022-09-03T21:27:49.081Z,16.20
2022-09-03T21:30:20.388Z,16.10
2022-09-03T21:33:02.563Z,16.20
2022-09-03T21:35:45.474Z,16.10
2022-09-03T21:38:25.154Z,16.00
2022-09-03T21:41:38.010Z,16.00
2022-09-03T21:44:16.549Z,16.00
2022-09-03T21:47:01.911Z,16.00
2022-09-03T21:49:47.773Z,16.00
2022-09-03T21:52:21.805Z,16.10
2022-09-03T21:54:49.031Z,16.10
2022-09-03T21:57:22.227Z,16.10
2022-09-03T22:00:13.224Z,16.10
2022-09-03T22:02:40.941Z,16.00
2022-09-03T22:05:08.233Z,16.00
2022-09-03T22:07:38.088Z,16.00
2022-09-03T22:10:08.011Z,15.90
2022-09-03T22:12:50.425Z,15.90
2022-09-03T22:15:19.927Z,15.80
2022-09-03T22:17:57.078Z,15.70
2022-09-03T22:20:27.118Z,15.60
2022-09-03T22:23:00.676Z,15.60
2022-09-03T22:25:44.059Z,15.60
2022-09-03T22:28:38.440Z,15.60
2022-09-03T22:31:38.066Z,15.60
2022-09-03T22:34:43.919Z,15.60
2022-09-03T22:37:33.758Z,15.70
2022-09-03T22:40:16.669Z,15.70
2022-09-03T22:42:58.230Z,15.80
2022-09-03T22:45:28.239Z,15.80
2022-09-03T22:48:23.786Z,15.80
2022-09-03T22:51:00.159Z,15.80
2022-09-03T22:53:43.458Z,15.70
2022-09-03T22:56:13.146Z,15.70
2022-09-03T22:58:55.909Z,15.80
2022-09-03T23:01:45.564Z,15.80
2022-09-03T23:04:33.825Z,15.80
2022-09-03T23:07:11.714Z,15.80
2022-09-03T23:09:41.342Z,15.70
2022-09-03T23:12:20.399Z,15.70
2022-09-03T23:14:56.381Z,15.60
2022-09-03T23:22:30.765Z,15.50
2022-09-03T23:25:03.383Z,15.40
2022-09-03T23:27:37.259Z,15.40
2022-09-03T23:30:05.696Z,15.40
2022-09-03T23:32:33.742Z,15.40
2022-09-03T23:35:04.410Z,15.40
2022-09-03T23:37:46.398Z,15.40
2022-09-03T23:40:23.501Z,15.40
2022-09-03T23:42:59.847Z,15.40
2022-09-03T23:45:47.802Z,15.40
2022-09-03T23:48:23.104Z,15.40
2022-09-03T23:51:09.340Z,15.30
2022-09-03T23:54:13.587Z,15.30
2022-09-03T23:56:55.896Z,15.20
2022-09-03T23:59:41.749Z,15.30
